»·PEaware :: WAT169 KSNA-KLAS

WAT169 :: KSNA-KLAS

FLIGHT INFORMATION

Flight Status: Arrived
Operator: Unknown
More flights by this operator :: More flights under this callsign
Pilot: Marty P. (27464)
Aircraft: BOEING 737-800
(B738)
More flights by this aircraft type
Origin: KSNA John Wayne-Orange Co
United States
Destination: KLAS McCarran Intl
United States
More flights between these airports :: More routes between these airports
Route: FINZZ2 MISEN KEPEC6
File this flight plan on PilotEdge
Remarks:
Altitude:
(Current/Filed)
27,000ft
Speed:
(Current/Filed)
470kts
Departed: 23-May-20 08:18 AM
Arrived: 23-May-20 09:06 AM
Distance/Time
Traveled:
197nm/0:48
Distance/Time
To Go:
Arrived

Flight Plot

Page will automatically refresh every two minutes.


Map Options




Map Legend


Flown Route
Filed Route
Departure Airport
Arrival Airport
Navaid (VOR, NDB)
Fix

Horizontal Profiles

Position Reports

Time Latitude Longitude Heading Altitude Ground
Speed
23-May-20 08:00 33.675005 -117.865072 118 66ft 0kts
23-May-20 08:01 33.675005 -117.865072 118 66ft 0kts
23-May-20 08:02 33.675005 -117.865072 118 66ft 0kts
23-May-20 08:03 33.675005 -117.865072 118 66ft 0kts
23-May-20 08:04 33.675005 -117.865072 118 66ft 0kts
23-May-20 08:05 33.675005 -117.865072 118 66ft 0kts
23-May-20 08:06 33.675005 -117.865072 118 66ft 0kts
23-May-20 08:07 33.675005 -117.865072 118 66ft 0kts
23-May-20 08:08 33.675005 -117.865072 118 66ft 0kts
23-May-20 08:09 33.675109 -117.865308 118 66ft 0kts
23-May-20 08:10 33.674994 -117.865920 31 66ft 1kts
23-May-20 08:11 33.674919 -117.865966 26 66ft 0kts
23-May-20 08:12 33.674981 -117.865928 27 66ft 3kts
23-May-20 08:13 33.677163 -117.864538 27 66ft 9kts
23-May-20 08:14 33.679436 -117.863096 28 66ft 10kts
23-May-20 08:15 33.681157 -117.864215 298 66ft 0kts
23-May-20 08:16 33.681213 -117.864339 298 66ft 6kts
23-May-20 08:17 33.674869 -117.869367 207 67ft 127kts
23-May-20 08:18 33.631725 -117.891570 187 1849ft 214kts
23-May-20 08:19 33.567698 -117.907479 209 5050ft 247kts
23-May-20 08:20 33.515817 -117.962210 237 8057ft 267kts
23-May-20 08:21 33.514620 -118.043403 302 8004ft 251kts
23-May-20 08:22 33.568319 -118.100668 335 9844ft 265kts
23-May-20 08:23 33.642531 -118.099583 19 11998ft 322kts
23-May-20 08:24 33.727034 -118.049691 21 14517ft 348kts
23-May-20 08:25 33.815742 -117.997831 20 17088ft 363kts
23-May-20 08:26 33.907275 -117.942346 27 19149ft 389kts
23-May-20 08:27 33.998150 -117.860989 32 20838ft 416kts
23-May-20 08:28 34.087498 -117.769697 41 22766ft 433kts
23-May-20 08:29 34.164247 -117.663735 44 25994ft 405kts
23-May-20 08:30 34.235503 -117.560125 45 27011ft 419kts
23-May-20 08:31 34.311192 -117.448041 46 27011ft 450kts
23-May-20 08:32 34.391180 -117.328304 46 27009ft 474kts
23-May-20 08:33 34.475272 -117.202276 46 27007ft 491kts
23-May-20 08:34 34.562168 -117.072094 46 27005ft 503kts
23-May-20 08:35 34.652435 -116.940631 45 26991ft 511kts
23-May-20 08:36 34.743434 -116.807769 45 26981ft 511kts
23-May-20 08:37 34.832658 -116.678493 41 26979ft 476kts
23-May-20 08:38 34.931671 -116.570379 33 26980ft 479kts
23-May-20 08:39 35.033674 -116.470921 33 25735ft 460kts
23-May-20 08:40 35.126403 -116.372434 40 23974ft 450kts
23-May-20 08:41 35.213282 -116.264693 41 23463ft 448kts
23-May-20 08:42 35.298767 -116.157676 41 20858ft 429kts
23-May-20 08:43 35.379373 -116.056280 41 18922ft 401kts
23-May-20 08:44 35.459375 -115.955268 42 17928ft 413kts
23-May-20 08:45 35.538996 -115.854386 42 15398ft 406kts
23-May-20 08:46 35.613886 -115.759094 43 13815ft 349kts
23-May-20 08:47 35.675461 -115.680487 43 13033ft 309kts
23-May-20 08:48 35.737041 -115.604675 32 13026ft 311kts
23-May-20 08:49 35.816518 -115.572141 359 13028ft 301kts
23-May-20 08:50 35.900026 -115.567541 358 13017ft 302kts
23-May-20 08:51 35.977151 -115.531241 48 12853ft 312kts
23-May-20 08:52 36.012842 -115.433459 66 11330ft 313kts
23-May-20 08:53 36.028224 -115.336539 92 10674ft 287kts
23-May-20 08:54 36.021379 -115.240979 92 9460ft 270kts
23-May-20 08:55 36.015131 -115.152223 91 8425ft 258kts
23-May-20 08:56 36.009458 -115.068084 91 8072ft 227kts
23-May-20 08:57 36.004905 -114.989846 91 8089ft 230kts
23-May-20 08:58 36.000279 -114.912582 91 7212ft 219kts
23-May-20 08:59 36.009711 -114.852366 12 5971ft 179kts
23-May-20 09:00 36.039092 -114.893103 299 4996ft 170kts
23-May-20 09:01 36.061116 -114.943828 300 3991ft 160kts
23-May-20 09:02 36.073803 -114.993236 273 4010ft 156kts
23-May-20 09:03 36.073645 -115.046509 275 3477ft 153kts
23-May-20 09:04 36.073670 -115.099742 276 2643ft 156kts
23-May-20 09:05 36.073692 -115.146023 271 2191ft 32kts
23-May-20 09:06 36.074615 -115.150290 300 2191ft 4kts
23-May-20 09:07 36.076803 -115.152190 334 2191ft 17kts
23-May-20 09:08 36.077976 -115.149963 93 2191ft 18kts
23-May-20 09:09 36.079494 -115.147655 348 2191ft 5kts
23-May-20 09:10 36.079911 -115.147059 62 2191ft 0kts
23-May-20 09:11 36.079911 -115.147059 62 2191ft 0kts

Navigation Log

Ident Type
Flight plan parsing failed, navigation log unavailable